createdAt,value
2017-07-30T05:31:47.089Z,2240
2017-07-30T05:32:12.533Z,2128
2017-07-30T05:32:38.003Z,2024
2017-07-30T05:33:03.490Z,2052
2017-07-30T05:34:16.773Z,2052
2017-07-30T05:34:42.247Z,1960
2017-07-30T05:35:07.731Z,1772
2017-07-30T05:35:33.248Z,1672
2017-07-30T05:35:58.699Z,1744
2017-07-30T05:36:24.149Z,1844
2017-07-30T05:36:49.620Z,1896
2017-07-30T05:37:15.172Z,1956
2017-07-30T05:37:40.581Z,1960
2017-07-30T05:38:06.094Z,1976
2017-07-30T05:38:31.549Z,2068
2017-07-30T05:38:57.006Z,2148
2017-07-30T05:39:22.509Z,2040
2017-07-30T05:39:48.014Z,1836
2017-07-30T05:40:13.513Z,1816
2017-07-30T05:40:39.123Z,1892
2017-07-30T05:41:04.524Z,2036
2017-07-30T05:41:30.068Z,2136
2017-07-30T05:41:55.668Z,2200
2017-07-30T05:42:21.198Z,2276
2017-07-30T05:42:46.707Z,2236
2017-07-30T05:43:12.277Z,2256
2017-07-30T05:43:38.003Z,2304
2017-07-30T05:44:03.458Z,2408
2017-07-30T05:44:28.979Z,2332
2017-07-30T05:44:54.459Z,2144
2017-07-30T05:45:19.955Z,1952
2017-07-30T05:45:45.459Z,1840
2017-07-30T05:46:10.918Z,1856
2017-07-30T05:46:36.354Z,2004
2017-07-30T05:47:01.849Z,2356
2017-07-30T05:47:27.315Z,2812
2017-07-30T05:47:52.800Z,3228
2017-07-30T05:48:18.290Z,3384
2017-07-30T05:48:43.791Z,3500
2017-07-30T05:49:09.263Z,3588
2017-07-30T05:49:34.736Z,3500
2017-07-30T05:50:00.185Z,3240
2017-07-30T05:50:25.699Z,3000
2017-07-30T05:50:51.164Z,2852
2017-07-30T05:51:16.620Z,2612
2017-07-30T05:51:42.115Z,2380
2017-07-30T05:52:07.606Z,2340
2017-07-30T05:52:33.089Z,2524
2017-07-30T05:52:58.563Z,2812
2017-07-30T05:53:24.014Z,2884
2017-07-30T05:53:49.503Z,2824
2017-07-30T05:54:14.978Z,2744
2017-07-30T05:54:40.426Z,2652
2017-07-30T05:55:05.923Z,2500
2017-07-30T05:55:31.424Z,2444
2017-07-30T05:55:56.925Z,2444
2017-07-30T05:56:22.444Z,2444
2017-07-30T05:56:47.915Z,2396
2017-07-30T05:57:13.455Z,2292
2017-07-30T05:57:38.909Z,2112
2017-07-30T05:58:04.427Z,2040
2017-07-30T05:58:29.917Z,2108
2017-07-30T05:58:55.359Z,2080
2017-07-30T05:59:20.828Z,2140
2017-07-30T05:59:46.315Z,3052
2017-07-30T06:00:11.825Z,3984
2017-07-30T06:00:37.307Z,4268
2017-07-30T06:01:02.807Z,3788
2017-07-30T06:01:28.279Z,3004
2017-07-30T06:01:53.740Z,2484
2017-07-30T06:02:19.259Z,2648
2017-07-30T06:02:44.712Z,2788
2017-07-30T06:03:10.206Z,2788
2017-07-30T06:03:35.659Z,2720
2017-07-30T06:04:01.197Z,2548
2017-07-30T06:04:26.697Z,2464
2017-07-30T06:04:52.163Z,2392
2017-07-30T06:05:17.635Z,2356
2017-07-30T06:05:43.186Z,2504
2017-07-30T06:06:08.680Z,2688
2017-07-30T06:06:34.168Z,2296
2017-07-30T06:06:59.669Z,2376
2017-07-30T06:07:25.126Z,2424
2017-07-30T06:07:50.634Z,2576
2017-07-30T06:08:16.137Z,3104
2017-07-30T06:08:41.614Z,4020
2017-07-30T06:09:07.139Z,4476
2017-07-30T06:09:32.617Z,6304
2017-07-30T06:09:58.068Z,3640
2017-07-30T06:10:23.551Z,3552
2017-07-30T06:10:49.041Z,3716
2017-07-30T06:11:14.526Z,3884
2017-07-30T06:11:40.029Z,4064
2017-07-30T06:12:05.547Z,4092
2017-07-30T06:12:31.111Z,3944
2017-07-30T06:12:56.601Z,4228
2017-07-30T06:13:22.119Z,4912
2017-07-30T06:13:47.609Z,4260
2017-07-30T06:14:13.108Z,4188
2017-07-30T06:14:38.628Z,3884
2017-07-30T06:15:04.176Z,3728
2017-07-30T06:15:29.643Z,3712
2017-07-30T06:15:55.108Z,3596
2017-07-30T06:16:20.576Z,3384
2017-07-30T06:16:46.070Z,3172
2017-07-30T06:17:11.556Z,4388
2017-07-30T06:17:37.027Z,3512
2017-07-30T06:18:02.506Z,2720
2017-07-30T06:18:27.968Z,2744
2017-07-30T06:18:53.448Z,2804
2017-07-30T06:19:18.965Z,2876
2017-07-30T06:19:44.423Z,2840
2017-07-30T06:20:09.936Z,3228
2017-07-30T06:20:35.440Z,3436
2017-07-30T06:21:00.939Z,3636
2017-07-30T06:21:26.381Z,3748
2017-07-30T06:21:51.842Z,3284
2017-07-30T06:22:17.346Z,3056
2017-07-30T06:22:42.835Z,3536
2017-07-30T06:23:08.279Z,3956
2017-07-30T06:23:33.770Z,4212
2017-07-30T06:24:36.875Z,4720
2017-07-30T06:25:02.353Z,3804
2017-07-30T06:25:27.838Z,3664
2017-07-30T06:25:53.326Z,4828
2017-07-30T06:27:07.129Z,2912
2017-07-30T06:27:32.595Z,2776
2017-07-30T06:27:58.070Z,3248
2017-07-30T06:28:23.572Z,3940
2017-07-30T06:28:49.059Z,4412
2017-07-30T06:29:14.510Z,4660
2017-07-30T06:29:40.023Z,6972
2017-07-30T06:30:05.505Z,6136
2017-07-30T06:30:31.000Z,4176
2017-07-30T06:30:56.475Z,3124
2017-07-30T06:31:21.953Z,2784
2017-07-30T06:31:47.461Z,2816
2017-07-30T06:32:12.912Z,2840
2017-07-30T06:32:38.363Z,4356
2017-07-30T06:33:03.811Z,3364
2017-07-30T06:33:29.322Z,3288
2017-07-30T06:33:54.850Z,4732
2017-07-30T06:34:20.333Z,4760
2017-07-30T06:34:45.835Z,5092
2017-07-30T06:35:11.317Z,4880
2017-07-30T06:35:36.822Z,4832
2017-07-30T06:36:02.237Z,5340
2017-07-30T06:36:27.713Z,5176
2017-07-30T06:36:53.228Z,5176
2017-07-30T06:37:18.756Z,4992
2017-07-30T06:37:44.232Z,4932
2017-07-30T06:38:09.751Z,4512
2017-07-30T06:38:35.204Z,5088
2017-07-30T06:39:00.719Z,5236
2017-07-30T06:39:26.205Z,5408
2017-07-30T06:39:51.661Z,5288
2017-07-30T06:40:17.188Z,4700
2017-07-30T06:40:42.652Z,3728
2017-07-30T06:41:08.133Z,3212
2017-07-30T06:41:33.654Z,3580
2017-07-30T06:41:59.141Z,2948
2017-07-30T06:42:24.641Z,2704
2017-07-30T06:42:50.135Z,3084
2017-07-30T06:43:15.663Z,3456
2017-07-30T06:43:41.132Z,4128
2017-07-30T06:44:06.646Z,4920
2017-07-30T06:44:32.133Z,5164
2017-07-30T06:44:57.639Z,5316
2017-07-30T06:45:23.134Z,5320
2017-07-30T06:45:48.638Z,5444
2017-07-30T06:46:14.151Z,5680
2017-07-30T06:46:39.642Z,5728
2017-07-30T06:47:05.234Z,5968
2017-07-30T06:47:30.762Z,6220
2017-07-30T06:47:56.251Z,6252
2017-07-30T06:48:21.805Z,6656
2017-07-30T06:48:47.223Z,6644
2017-07-30T06:49:12.720Z,6904
2017-07-30T06:49:38.217Z,6816
2017-07-30T06:50:03.721Z,6864
2017-07-30T06:50:34.077Z,5252
2017-07-30T06:51:04.218Z,4444
2017-07-30T06:51:31.968Z,4448
2017-07-30T06:52:35.576Z,4720
2017-07-30T06:53:01.045Z,4720
2017-07-30T06:53:26.524Z,4132
2017-07-30T06:53:52.038Z,4236
2017-07-30T06:54:17.505Z,3976
2017-07-30T06:54:42.965Z,4292
2017-07-30T06:55:08.441Z,3928
2017-07-30T06:55:33.916Z,4516
2017-07-30T06:55:59.400Z,4564
2017-07-30T06:56:24.897Z,5012
2017-07-30T06:56:50.375Z,5360
2017-07-30T06:57:15.879Z,5956
2017-07-30T06:57:41.359Z,6396
2017-07-30T06:58:06.880Z,5796
2017-07-30T06:58:32.323Z,5468
2017-07-30T06:58:57.787Z,5580
2017-07-30T06:59:23.260Z,5308
2017-07-30T06:59:48.736Z,5376
2017-07-30T07:00:14.211Z,5464
2017-07-30T07:00:39.726Z,5376
2017-07-30T07:01:05.260Z,5904
2017-07-30T07:01:30.716Z,5572
2017-07-30T07:01:56.161Z,6464
2017-07-30T07:02:21.653Z,6076
2017-07-30T07:02:47.194Z,5476
2017-07-30T07:03:12.662Z,6376
2017-07-30T07:03:38.120Z,5796
2017-07-30T07:04:03.606Z,5996
2017-07-30T07:04:29.112Z,6864
2017-07-30T07:04:54.725Z,7016
2017-07-30T07:05:20.160Z,6404
2017-07-30T07:05:45.617Z,5604
2017-07-30T07:06:11.116Z,5672
2017-07-30T07:06:36.580Z,5236
2017-07-30T07:07:02.058Z,5176
2017-07-30T07:07:27.575Z,5320
2017-07-30T07:07:53.092Z,4944
2017-07-30T07:08:18.622Z,4988
2017-07-30T07:08:44.165Z,4796
2017-07-30T07:09:09.677Z,5420
2017-07-30T07:09:35.279Z,4928
2017-07-30T07:10:00.749Z,4568
2017-07-30T07:10:26.252Z,4532
2017-07-30T07:10:51.812Z,4480
2017-07-30T07:11:17.365Z,4252
2017-07-30T07:11:42.898Z,4104
2017-07-30T07:12:08.557Z,3900
2017-07-30T07:12:34.036Z,3788
2017-07-30T07:12:59.526Z,3740
2017-07-30T07:13:25.041Z,3740
2017-07-30T07:13:50.486Z,3708
2017-07-30T07:14:16.085Z,3888
2017-07-30T07:14:41.602Z,4032
2017-07-30T07:15:07.326Z,3892
2017-07-30T07:15:32.701Z,3632
2017-07-30T07:15:58.316Z,3688
2017-07-30T07:16:23.783Z,4404
2017-07-30T07:16:49.236Z,4180
2017-07-30T07:17:14.763Z,4416
2017-07-30T07:17:40.313Z,4984
2017-07-30T07:18:05.905Z,4696
2017-07-30T07:18:31.520Z,4384
2017-07-30T07:18:57.037Z,4324
2017-07-30T07:19:22.738Z,4548
2017-07-30T07:19:48.273Z,5372
2017-07-30T07:20:13.803Z,4356
2017-07-30T07:20:39.357Z,5224
2017-07-30T07:21:04.841Z,3888
2017-07-30T07:21:30.353Z,3876
2017-07-30T07:21:55.898Z,3976
2017-07-30T07:22:21.393Z,4292
2017-07-30T07:22:46.861Z,4572
2017-07-30T07:23:12.336Z,3736
2017-07-30T07:23:37.969Z,3876
2017-07-30T07:24:03.447Z,3504
2017-07-30T07:24:29.005Z,3400
2017-07-30T07:24:54.613Z,3276
2017-07-30T07:25:20.165Z,3148
2017-07-30T07:25:45.738Z,3392
2017-07-30T07:26:11.362Z,3000
2017-07-30T07:26:36.840Z,2792
2017-07-30T07:27:02.403Z,3584
2017-07-30T07:27:27.894Z,3368
2017-07-30T07:27:53.436Z,3156
2017-07-30T07:28:19.102Z,2932
2017-07-30T07:28:44.566Z,3404
2017-07-30T07:29:10.160Z,2620
2017-07-30T07:29:35.695Z,2500
2017-07-30T07:30:01.197Z,2280
2017-07-30T07:30:26.780Z,2100
2017-07-30T07:30:52.459Z,2308
2017-07-30T07:31:17.993Z,2452
2017-07-30T07:31:43.569Z,2556
2017-07-30T07:32:09.108Z,2668
2017-07-30T07:32:34.640Z,2456
2017-07-30T07:33:00.219Z,2460
2017-07-30T07:33:25.731Z,2788
2017-07-30T07:33:51.239Z,3076
2017-07-30T07:34:16.851Z,2984
2017-07-30T07:34:42.368Z,2904
2017-07-30T07:35:07.847Z,3740
2017-07-30T07:35:33.475Z,3820
2017-07-30T07:35:59.094Z,4568
2017-07-30T07:36:24.581Z,5288
2017-07-30T07:36:50.206Z,5264
2017-07-30T07:37:15.710Z,5732
2017-07-30T07:37:41.253Z,6404
2017-07-30T07:38:06.749Z,7020
2017-07-30T07:38:32.197Z,6568
2017-07-30T07:38:57.668Z,6200
2017-07-30T07:39:23.139Z,6728
2017-07-30T07:39:48.636Z,8384
2017-07-30T07:40:14.115Z,8748
2017-07-30T07:40:39.590Z,8760
2017-07-30T07:41:05.084Z,8048
2017-07-30T07:41:30.665Z,7176
2017-07-30T07:41:56.128Z,6312
2017-07-30T07:42:21.599Z,6396
2017-07-30T07:42:47.108Z,6336
2017-07-30T07:43:12.604Z,6140
2017-07-30T07:43:38.066Z,5980
2017-07-30T07:44:03.533Z,6028
2017-07-30T07:44:29.014Z,6372
2017-07-30T07:44:54.509Z,6728
2017-07-30T07:45:19.984Z,7532
2017-07-30T07:45:45.457Z,7148
2017-07-30T07:46:10.959Z,6220
2017-07-30T07:46:36.406Z,6760
2017-07-30T07:47:49.698Z,5084
2017-07-30T07:48:15.188Z,4988
2017-07-30T07:48:40.653Z,5152
2017-07-30T07:49:06.121Z,5012
2017-07-30T07:49:31.606Z,4768
2017-07-30T07:49:57.053Z,4640
2017-07-30T07:50:22.536Z,4452
2017-07-30T07:50:47.984Z,4504
2017-07-30T07:51:13.453Z,5088
2017-07-30T07:51:38.940Z,6020
2017-07-30T07:52:04.414Z,6616
2017-07-30T07:52:29.923Z,5864
2017-07-30T07:52:55.477Z,4700
2017-07-30T07:53:20.987Z,4748
2017-07-30T07:53:46.461Z,6120
2017-07-30T07:54:11.972Z,6540
2017-07-30T07:54:37.492Z,5728
2017-07-30T07:55:03.019Z,5204
2017-07-30T07:55:28.499Z,4996
2017-07-30T07:55:53.953Z,5064
2017-07-30T07:56:19.421Z,5732
2017-07-30T07:56:44.917Z,5868
2017-07-30T07:57:10.388Z,5792
2017-07-30T07:57:35.843Z,5548
2017-07-30T07:58:01.390Z,5624
2017-07-30T07:58:26.924Z,5504
2017-07-30T07:58:52.404Z,5208
2017-07-30T07:59:17.864Z,4860
2017-07-30T07:59:43.357Z,4740
2017-07-30T08:00:08.871Z,5504
2017-07-30T08:00:34.383Z,5532
2017-07-30T08:00:59.822Z,4892
2017-07-30T08:01:25.287Z,4020
2017-07-30T08:01:50.749Z,3612
2017-07-30T08:02:16.214Z,3632
2017-07-30T08:02:41.680Z,2784
2017-07-30T08:03:07.166Z,2288
2017-07-30T08:03:32.651Z,2372
2017-07-30T08:03:58.175Z,3076
2017-07-30T08:04:23.665Z,3776
2017-07-30T08:04:49.175Z,4004
2017-07-30T08:05:14.666Z,3828
2017-07-30T08:05:40.132Z,3380
2017-07-30T08:06:05.597Z,2328
2017-07-30T08:06:31.113Z,2340
2017-07-30T08:06:56.584Z,2532
2017-07-30T08:07:22.072Z,2792
2017-07-30T08:07:47.618Z,2928
2017-07-30T08:08:13.080Z,2692
2017-07-30T08:08:38.569Z,3012
2017-07-30T08:09:04.086Z,3008
2017-07-30T08:09:29.577Z,3344
2017-07-30T08:09:55.074Z,3428
2017-07-30T08:10:20.542Z,3456
2017-07-30T08:10:46.020Z,3156
2017-07-30T08:11:11.517Z,2908
2017-07-30T08:11:37.027Z,2988
2017-07-30T08:12:02.546Z,3572
2017-07-30T08:12:28.015Z,4128
2017-07-30T08:12:53.509Z,5512
2017-07-30T08:13:19.026Z,4696
2017-07-30T08:13:44.508Z,3852
2017-07-30T08:14:10.032Z,4716
2017-07-30T08:14:35.531Z,6176
2017-07-30T08:15:00.980Z,8536
2017-07-30T08:15:26.471Z,8924
2017-07-30T08:15:51.969Z,8092
2017-07-30T08:16:17.479Z,7840
2017-07-30T08:16:42.978Z,8160
2017-07-30T08:17:08.513Z,6056
2017-07-30T08:17:34.025Z,5108
2017-07-30T08:17:59.514Z,4912
2017-07-30T08:18:24.977Z,4680
2017-07-30T08:18:50.514Z,4028
2017-07-30T08:19:16.038Z,3692
2017-07-30T08:19:41.509Z,3892
2017-07-30T08:20:06.977Z,4380
2017-07-30T08:20:32.499Z,4224
2017-07-30T08:20:57.967Z,3956
2017-07-30T08:21:23.452Z,3836
2017-07-30T08:21:48.957Z,3908
2017-07-30T08:22:14.468Z,4052
2017-07-30T08:22:39.938Z,4596
2017-07-30T08:23:05.376Z,4188
2017-07-30T08:23:30.836Z,3800
2017-07-30T08:23:56.303Z,3728
2017-07-30T08:24:21.815Z,3652
2017-07-30T08:24:47.315Z,3624
2017-07-30T08:25:12.778Z,3472
2017-07-30T08:25:38.277Z,3496
2017-07-30T08:26:03.748Z,3576
2017-07-30T08:26:29.239Z,3488
2017-07-30T08:26:54.722Z,3060
2017-07-30T08:27:20.192Z,2696
2017-07-30T08:27:45.666Z,2648
2017-07-30T08:28:11.150Z,2888
2017-07-30T08:28:36.651Z,3264
2017-07-30T08:29:02.164Z,4072
2017-07-30T08:29:27.649Z,4568
2017-07-30T08:29:53.122Z,5188
2017-07-30T08:30:18.619Z,6452
2017-07-30T08:30:44.094Z,7032
2017-07-30T08:31:09.612Z,7112
2017-07-30T08:31:35.134Z,6824
2017-07-30T08:32:00.583Z,6624
2017-07-30T08:32:26.067Z,7072
2017-07-30T08:32:51.575Z,6852
2017-07-30T08:33:17.060Z,6228
2017-07-30T08:33:42.557Z,6644
2017-07-30T08:34:08.045Z,7428
2017-07-30T08:34:33.534Z,7344
2017-07-30T08:34:59.046Z,6956
2017-07-30T08:35:24.531Z,7308
2017-07-30T08:35:50.017Z,7204
2017-07-30T08:36:15.491Z,6980
2017-07-30T08:36:40.997Z,7616
2017-07-30T08:37:06.462Z,7756
2017-07-30T08:37:31.941Z,7056
2017-07-30T08:37:57.432Z,6876
2017-07-30T08:38:22.908Z,6400
2017-07-30T08:38:48.401Z,6824
2017-07-30T08:39:13.902Z,8024
2017-07-30T08:39:39.421Z,8724
2017-07-30T08:40:04.874Z,7956
2017-07-30T08:40:30.386Z,6984
2017-07-30T08:40:55.908Z,6664
2017-07-30T08:41:21.416Z,7020
2017-07-30T08:41:46.914Z,6136
2017-07-30T08:42:12.408Z,6120
2017-07-30T08:42:37.949Z,6968
2017-07-30T08:43:03.467Z,8272
2017-07-30T08:43:28.917Z,8336
2017-07-30T08:43:54.402Z,7132
2017-07-30T08:44:19.867Z,6660
2017-07-30T08:44:45.330Z,7204
2017-07-30T08:45:10.858Z,7924
2017-07-30T08:45:36.333Z,7176
2017-07-30T08:46:01.830Z,6736
2017-07-30T08:46:27.310Z,7192
2017-07-30T08:46:52.812Z,7556
2017-07-30T08:47:18.334Z,7868
2017-07-30T08:47:43.821Z,7344
2017-07-30T08:48:09.294Z,7512
2017-07-30T08:48:34.784Z,7916
2017-07-30T08:49:00.283Z,6816
2017-07-30T08:49:25.777Z,6088
2017-07-30T08:49:51.276Z,5448
2017-07-30T08:50:16.793Z,4568
2017-07-30T08:50:42.299Z,4104
2017-07-30T08:51:07.815Z,4000
2017-07-30T08:51:33.273Z,5804
2017-07-30T08:51:58.764Z,6280
2017-07-30T08:52:24.266Z,8024
2017-07-30T08:52:49.752Z,8472
2017-07-30T08:53:15.226Z,8356
2017-07-30T08:53:40.651Z,8052
2017-07-30T08:54:06.136Z,7832
2017-07-30T08:54:31.642Z,7444
2017-07-30T08:54:57.122Z,7396
2017-07-30T08:55:22.629Z,8072
2017-07-30T08:55:48.121Z,9000
2017-07-30T08:56:13.611Z,9364
2017-07-30T08:56:39.084Z,8868
2017-07-30T08:57:04.584Z,6708
2017-07-30T08:57:30.057Z,5156
2017-07-30T08:57:55.561Z,3840
2017-07-30T08:58:21.027Z,3396
2017-07-30T08:58:46.604Z,3300
2017-07-30T08:59:12.079Z,4400
2017-07-30T08:59:37.554Z,6632
2017-07-30T09:00:03.116Z,7480
2017-07-30T09:00:28.613Z,7432
2017-07-30T09:00:54.118Z,7508
2017-07-30T09:01:19.601Z,7316
2017-07-30T09:01:45.086Z,6844
2017-07-30T09:02:10.577Z,5940
2017-07-30T09:02:36.054Z,4728
2017-07-30T09:03:01.532Z,3956
2017-07-30T09:03:27.020Z,3536
2017-07-30T09:03:52.495Z,3176
2017-07-30T09:04:18.009Z,3304
2017-07-30T09:04:43.539Z,3872
2017-07-30T09:05:09.042Z,4408
2017-07-30T09:05:34.487Z,5020
2017-07-30T09:05:59.991Z,4804
2017-07-30T09:06:25.462Z,4076
2017-07-30T09:06:50.942Z,5040
2017-07-30T09:07:16.406Z,5688
2017-07-30T09:07:41.847Z,5688
2017-07-30T09:08:07.364Z,4836
2017-07-30T09:08:32.843Z,3908
2017-07-30T09:08:58.312Z,3412
2017-07-30T09:09:23.760Z,3316
2017-07-30T09:09:49.250Z,3500
2017-07-30T09:10:14.758Z,4328
2017-07-30T09:10:40.237Z,5160
2017-07-30T09:11:05.770Z,5396
2017-07-30T09:11:31.285Z,5156
2017-07-30T09:11:56.814Z,4512
2017-07-30T09:12:22.229Z,3792
2017-07-30T09:12:47.769Z,3536
2017-07-30T09:13:13.288Z,3816
2017-07-30T09:13:38.803Z,4176
2017-07-30T09:14:04.281Z,4468
2017-07-30T09:14:29.802Z,4800
2017-07-30T09:14:55.263Z,4748
2017-07-30T09:15:20.731Z,4096
2017-07-30T09:15:46.216Z,3792
2017-07-30T09:16:11.663Z,4128
2017-07-30T09:16:37.173Z,4624
2017-07-30T09:17:02.645Z,5624
2017-07-30T09:17:28.128Z,5548
2017-07-30T09:17:53.598Z,4608
2017-07-30T09:18:19.129Z,3864
2017-07-30T09:18:44.599Z,3376
2017-07-30T09:19:10.074Z,2908
2017-07-30T09:19:35.580Z,2928
2017-07-30T09:20:01.080Z,3548
2017-07-30T09:20:26.530Z,4656
2017-07-30T09:20:52.011Z,6648
2017-07-30T09:21:17.497Z,7076
2017-07-30T09:21:42.957Z,7116
2017-07-30T09:22:08.484Z,7604
2017-07-30T09:22:33.965Z,7904
2017-07-30T09:22:59.472Z,7816
2017-07-30T09:23:24.981Z,6196
2017-07-30T09:23:50.461Z,6016
2017-07-30T09:24:15.930Z,7320
2017-07-30T09:24:41.442Z,8504
2017-07-30T09:25:06.970Z,8036
2017-07-30T09:25:32.444Z,8128
2017-07-30T09:25:57.923Z,8612
2017-07-30T09:26:23.447Z,8848
2017-07-30T09:26:48.936Z,8092
2017-07-30T09:27:14.443Z,8152
2017-07-30T09:27:39.914Z,8556
2017-07-30T09:28:05.429Z,8680
2017-07-30T09:28:30.865Z,8336
2017-07-30T09:28:56.359Z,8284
2017-07-30T09:29:21.823Z,8116
2017-07-30T09:29:47.335Z,8220
2017-07-30T09:30:12.820Z,8236
2017-07-30T09:30:38.370Z,8144
2017-07-30T09:31:03.891Z,8808
2017-07-30T09:31:29.356Z,8796
2017-07-30T09:31:54.843Z,8608
2017-07-30T09:32:20.324Z,7900
2017-07-30T09:32:45.822Z,7376
2017-07-30T09:33:11.322Z,7128
2017-07-30T09:33:36.759Z,7472
2017-07-30T09:34:02.264Z,7556
2017-07-30T09:34:27.775Z,7476
2017-07-30T09:34:53.239Z,6944
2017-07-30T09:35:18.721Z,6752
2017-07-30T09:35:44.152Z,6496
2017-07-30T09:36:09.626Z,6052
2017-07-30T09:36:35.117Z,5328
2017-07-30T09:37:00.587Z,4844
2017-07-30T09:37:26.049Z,4332
2017-07-30T09:37:51.532Z,4760
2017-07-30T09:38:17.029Z,4232
2017-07-30T09:38:42.524Z,5272
2017-07-30T09:39:08.022Z,5320
2017-07-30T09:39:33.540Z,5392
2017-07-30T09:39:59.028Z,6996
2017-07-30T09:40:24.521Z,7868
2017-07-30T09:40:49.984Z,7936
2017-07-30T09:41:15.499Z,8988
2017-07-30T09:41:41.011Z,8380
2017-07-30T09:42:06.483Z,7836
2017-07-30T09:42:31.991Z,7552
2017-07-30T09:42:57.492Z,7956
2017-07-30T09:43:22.974Z,8520
2017-07-30T09:43:48.453Z,9272
2017-07-30T09:44:13.947Z,10316
2017-07-30T09:44:39.401Z,10996
2017-07-30T09:45:04.890Z,11304
2017-07-30T09:45:30.356Z,11200
2017-07-30T09:45:55.870Z,10424
2017-07-30T09:46:21.330Z,9044
2017-07-30T09:46:46.810Z,7984
2017-07-30T09:47:12.383Z,7656
2017-07-30T09:47:37.848Z,6884
2017-07-30T09:48:03.318Z,6776
2017-07-30T09:48:28.821Z,6664
2017-07-30T09:48:54.297Z,6344
2017-07-30T09:49:19.797Z,6588
2017-07-30T09:49:45.256Z,6568
2017-07-30T09:50:10.735Z,6536
2017-07-30T09:51:34.306Z,10800
2017-07-30T09:51:59.803Z,10632
2017-07-30T09:52:25.295Z,10060
2017-07-30T09:52:50.842Z,9388
2017-07-30T09:53:16.294Z,8576
2017-07-30T09:53:41.880Z,7708
2017-07-30T09:54:07.305Z,5928
2017-07-30T09:54:32.761Z,4560
2017-07-30T09:54:58.223Z,3636
2017-07-30T09:55:23.745Z,2904
2017-07-30T09:55:49.225Z,2656
2017-07-30T09:56:14.674Z,2408
2017-07-30T09:56:40.167Z,2340
2017-07-30T09:57:05.638Z,2648
2017-07-30T09:57:31.108Z,4544
2017-07-30T09:57:56.588Z,5204
2017-07-30T09:58:22.062Z,5384
2017-07-30T09:58:47.516Z,4876
2017-07-30T09:59:12.989Z,4440
2017-07-30T09:59:38.467Z,4044
2017-07-30T10:00:03.945Z,3824
2017-07-30T10:00:29.418Z,4628
2017-07-30T10:00:54.960Z,6296
2017-07-30T10:01:20.475Z,7184
2017-07-30T10:01:45.963Z,7876
2017-07-30T10:02:11.430Z,8320
2017-07-30T10:02:36.923Z,8792
2017-07-30T10:03:02.362Z,8996
2017-07-30T10:03:27.830Z,8596
2017-07-30T10:03:53.287Z,8420
2017-07-30T10:04:18.770Z,8500
2017-07-30T10:04:44.276Z,8424
2017-07-30T10:05:09.749Z,8644
2017-07-30T10:05:35.243Z,9928
2017-07-30T10:06:00.736Z,10960
2017-07-30T10:06:26.247Z,11008
2017-07-30T10:06:51.736Z,11524
2017-07-30T10:07:17.260Z,11988
2017-07-30T10:07:42.773Z,11420
2017-07-30T10:08:46.351Z,12084
2017-07-30T10:09:11.815Z,12124
2017-07-30T10:09:37.285Z,12188
2017-07-30T10:10:02.774Z,12512
2017-07-30T10:10:28.238Z,11512
2017-07-30T10:10:53.731Z,10156
2017-07-30T10:11:19.185Z,9332
2017-07-30T10:11:44.656Z,9280
2017-07-30T10:12:10.096Z,9516
2017-07-30T10:12:35.570Z,9492
2017-07-30T10:13:01.073Z,9616
2017-07-30T10:13:26.555Z,10020
2017-07-30T10:14:45.489Z,10660
2017-07-30T10:15:10.930Z,10996
2017-07-30T10:15:36.392Z,11256
2017-07-30T10:16:01.913Z,11472
2017-07-30T10:16:27.389Z,11696
2017-07-30T10:16:52.849Z,11684
2017-07-30T10:17:18.358Z,11524
2017-07-30T10:17:43.826Z,11500
2017-07-30T10:18:09.280Z,11672
2017-07-30T10:18:34.771Z,11432
2017-07-30T10:19:00.305Z,11600
2017-07-30T10:19:25.812Z,11332
2017-07-30T10:19:51.290Z,11228
2017-07-30T10:20:16.784Z,11364
2017-07-30T10:20:42.271Z,11416
2017-07-30T10:21:07.737Z,11260
2017-07-30T10:21:33.214Z,10904
2017-07-30T10:21:58.713Z,10916
2017-07-30T10:22:24.199Z,10936
2017-07-30T10:22:49.690Z,10932
2017-07-30T10:23:15.152Z,10904
2017-07-30T10:23:40.612Z,10844
2017-07-30T10:24:06.097Z,10320
2017-07-30T10:24:31.604Z,9348
2017-07-30T10:24:57.045Z,8600
2017-07-30T10:25:22.534Z,8360
2017-07-30T10:25:48.002Z,8892
2017-07-30T10:26:13.503Z,10096
2017-07-30T10:26:39.008Z,10956
2017-07-30T10:27:04.514Z,11324
2017-07-30T10:27:30.002Z,11484
2017-07-30T10:27:55.503Z,11596
2017-07-30T10:28:21.027Z,11596
2017-07-30T10:28:46.485Z,11532
2017-07-30T10:29:11.974Z,11632
2017-07-30T10:29:37.455Z,11568
2017-07-30T10:30:02.944Z,11528
2017-07-30T10:30:28.467Z,11368
2017-07-30T10:30:54.001Z,11164
2017-07-30T10:31:19.475Z,10656
2017-07-30T10:31:45.004Z,9640
2017-07-30T10:32:10.463Z,8568
2017-07-30T10:32:35.949Z,7404
2017-07-30T10:33:01.423Z,6392
2017-07-30T10:33:26.892Z,5532
2017-07-30T10:33:52.380Z,5436
2017-07-30T10:34:17.898Z,6508
2017-07-30T10:34:43.358Z,7448
2017-07-30T10:35:08.904Z,6976
2017-07-30T10:35:34.385Z,6260
2017-07-30T10:35:59.923Z,5724
2017-07-30T10:36:25.414Z,5232
2017-07-30T10:36:50.898Z,5572
2017-07-30T10:37:16.378Z,6384
2017-07-30T10:37:41.893Z,6092
2017-07-30T10:38:07.370Z,5116
2017-07-30T10:38:32.855Z,3804
2017-07-30T10:38:58.355Z,2656
2017-07-30T10:39:23.834Z,1912
2017-07-30T10:39:49.286Z,1864
2017-07-30T10:40:14.779Z,2784
2017-07-30T10:40:40.272Z,4296
2017-07-30T10:41:05.747Z,5452
2017-07-30T10:41:31.226Z,6372
2017-07-30T10:41:56.702Z,6952
2017-07-30T10:42:22.209Z,7156
2017-07-30T10:42:47.679Z,7128
2017-07-30T10:43:13.134Z,7332
2017-07-30T10:43:38.587Z,7444
2017-07-30T10:44:04.084Z,6976
2017-07-30T10:44:29.542Z,6424
2017-07-30T10:44:55.037Z,6292
2017-07-30T10:45:20.525Z,6340
2017-07-30T10:45:45.994Z,6396
2017-07-30T10:46:11.476Z,6540
2017-07-30T10:46:37.036Z,7292
2017-07-30T10:47:02.495Z,8344
2017-07-30T10:47:27.973Z,9000
2017-07-30T10:47:53.461Z,9300
2017-07-30T10:48:18.946Z,9352
2017-07-30T10:48:44.439Z,9520
2017-07-30T10:49:09.915Z,9684
2017-07-30T10:49:35.403Z,9816
2017-07-30T10:50:00.909Z,9940
2017-07-30T10:50:26.405Z,9996
2017-07-30T10:50:51.872Z,10016
2017-07-30T10:51:17.366Z,10032
2017-07-30T10:51:42.827Z,10056
2017-07-30T10:52:08.345Z,10108
2017-07-30T10:52:33.787Z,10084
2017-07-30T10:52:59.265Z,10192
2017-07-30T10:53:24.798Z,10172
2017-07-30T10:53:50.232Z,10160
2017-07-30T10:54:15.679Z,10172
2017-07-30T10:54:41.135Z,10292
2017-07-30T10:55:06.624Z,10376
2017-07-30T10:55:32.134Z,10416
2017-07-30T10:55:57.649Z,10452
2017-07-30T10:56:23.112Z,10480
2017-07-30T10:56:48.620Z,10552
2017-07-30T10:57:14.119Z,10636
2017-07-30T10:57:39.667Z,10712
2017-07-30T10:58:05.203Z,10720
2017-07-30T10:58:30.749Z,10656
2017-07-30T10:58:56.303Z,10528
2017-07-30T10:59:21.797Z,10412
2017-07-30T10:59:47.256Z,10344
2017-07-30T11:00:12.752Z,10284
2017-07-30T11:00:38.291Z,10264
2017-07-30T11:01:03.756Z,10296
2017-07-30T11:01:29.210Z,10288
2017-07-30T11:01:54.729Z,10276
2017-07-30T11:02:20.185Z,10260
2017-07-30T11:02:45.681Z,10220
2017-07-30T11:03:11.174Z,10208
2017-07-30T11:03:36.657Z,10192
2017-07-30T11:04:02.160Z,10152
2017-07-30T11:04:27.637Z,10120
2017-07-30T11:04:53.119Z,10100
2017-07-30T11:05:18.639Z,10112
2017-07-30T11:05:44.176Z,10116
2017-07-30T11:06:09.662Z,10148
2017-07-30T11:06:35.156Z,10208
2017-07-30T11:07:00.608Z,10300
2017-07-30T11:07:26.092Z,10376
2017-07-30T11:07:51.575Z,10392
2017-07-30T11:08:17.061Z,10336
2017-07-30T11:09:20.151Z,10096
2017-07-30T11:09:45.635Z,10124
2017-07-30T11:10:11.091Z,10120
2017-07-30T11:10:36.591Z,10072
2017-07-30T11:11:02.070Z,9972
2017-07-30T11:11:27.554Z,10004
2017-07-30T11:11:52.999Z,10048
2017-07-30T11:12:18.461Z,10008
2017-07-30T11:12:43.929Z,10000
2017-07-30T11:13:09.417Z,9976
2017-07-30T11:13:34.843Z,9820
2017-07-30T11:14:00.331Z,9640
2017-07-30T11:14:25.806Z,9272
2017-07-30T11:14:51.215Z,8948
2017-07-30T11:15:16.694Z,8856
2017-07-30T11:15:42.144Z,9012
2017-07-30T11:16:07.608Z,9204